Time;durP1;ratioP1;P1;durP2;ratioP2;P2;SDS_P1;SDS_P2;PMS_P1;PMS_P2;Temp;Humidity;BMP_temperature;BMP_pressure;BME280_temperature;BME280_humidity;BME280_pressure;Samples;Min_cycle;Max_cycle;Signal;HPM_P1;HPM_P2
2020/12/13 00:01:40;;;;;;;16.77;4.32;;;11.20;59.00;;;;;;4965474;28;81182;-69
2020/12/13 00:04:42;;;;;;;18.88;4.38;;;11.20;59.20;;;;;;4944919;28;80694;-68
2020/12/13 00:07:32;;;;;;;9.82;3.33;;;11.20;59.40;;;;;;4924860;28;81398;-69
2020/12/13 00:10:30;;;;;;;8.82;3.40;;;11.00;59.60;;;;;;4948775;28;81509;-69
2020/12/13 00:13:12;;;;;;;11.55;2.97;;;11.00;59.30;;;;;;4925084;28;81875;-69
2020/12/13 00:16:17;;;;;;;12.88;4.22;;;11.00;59.70;;;;;;4926132;28;80708;-70
2020/12/13 00:19:20;;;;;;;9.90;3.10;;;11.00;59.80;;;;;;4925743;28;80736;-70
2020/12/13 00:22:19;;;;;;;9.55;3.72;;;10.90;59.20;;;;;;4856629;28;80529;-69
2020/12/13 00:25:04;;;;;;;17.65;4.43;;;10.90;59.40;;;;;;4943953;28;81104;-69
2020/12/13 00:27:55;;;;;;;13.07;3.53;;;10.90;59.50;;;;;;4961309;28;80406;-70
2020/12/13 00:30:38;;;;;;;13.20;4.03;;;10.80;59.40;;;;;;4983689;28;80161;-69
2020/12/13 00:36:44;;;;;;;9.80;3.22;;;10.80;60.10;;;;;;5017610;28;80569;-71
2020/12/13 00:39:42;;;;;;;10.30;3.03;;;10.70;60.50;;;;;;5022272;28;80613;-71
2020/12/13 00:42:47;;;;;;;14.60;3.50;;;10.70;60.80;;;;;;4966943;28;81057;-70
2020/12/13 00:45:43;;;;;;;12.82;4.13;;;10.70;60.80;;;;;;4965621;28;80495;-70
2020/12/13 00:49:07;;;;;;;12.07;3.70;;;10.60;61.00;;;;;;4984043;28;81929;-72
2020/12/13 00:52:25;;;;;;;19.40;4.07;;;10.60;61.00;;;;;;4984249;28;79952;-72
2020/12/13 00:55:06;;;;;;;16.77;3.65;;;10.50;61.50;;;;;;4984360;28;81172;-71
2020/12/13 00:57:40;;;;;;;11.90;3.45;;;10.40;61.70;;;;;;4978657;28;79979;-70
2020/12/13 01:00:42;;;;;;;16.77;3.73;;;10.40;61.90;;;;;;5008621;28;80323;-71
2020/12/13 01:03:37;;;;;;;19.77;4.10;;;10.40;62.10;;;;;;5026073;28;82031;-71
2020/12/13 01:06:33;;;;;;;11.70;3.47;;;10.40;62.50;;;;;;5024621;28;80785;-70
2020/12/13 01:09:38;;;;;;;13.50;4.63;;;10.30;62.80;;;;;;4988682;28;80930;-71
2020/12/13 01:12:24;;;;;;;14.07;4.70;;;10.30;63.00;;;;;;4984190;28;80038;-70
2020/12/13 01:15:32;;;;;;;17.13;4.00;;;10.30;63.20;;;;;;5025141;28;80636;-70
2020/12/13 01:18:31;;;;;;;11.55;3.95;;;10.30;63.50;;;;;;5009679;28;80734;-70
2020/12/13 01:21:32;;;;;;;16.83;3.90;;;10.20;63.80;;;;;;4990612;28;80912;-70
2020/12/13 01:24:16;;;;;;;13.77;3.80;;;10.20;63.80;;;;;;5024667;28;81170;-71
2020/12/13 01:27:25;;;;;;;14.30;4.00;;;10.20;64.10;;;;;;5026014;28;80014;-70
2020/12/13 01:30:36;;;;;;;14.20;3.53;;;10.10;64.20;;;;;;5022519;28;81175;-70
2020/12/13 01:33:35;;;;;;;13.45;3.90;;;10.10;64.20;;;;;;5024551;28;80522;-71
2020/12/13 01:36:38;;;;;;;14.55;5.18;;;10.00;64.60;;;;;;4991778;28;80772;-69
2020/12/13 01:39:34;;;;;;;18.73;4.85;;;10.00;64.50;;;;;;4962431;28;80219;-70
2020/12/13 01:42:23;;;;;;;19.90;5.65;;;9.90;64.70;;;;;;5019670;28;81173;-69
2020/12/13 01:45:21;;;;;;;19.38;5.25;;;9.90;65.10;;;;;;5010421;28;82309;-68
2020/12/13 01:48:09;;;;;;;15.77;3.97;;;9.90;65.00;;;;;;5023175;28;79931;-70
2020/12/13 01:53:43;;;;;;;19.65;5.05;;;9.80;65.70;;;;;;4999995;28;79965;-69
2020/12/13 01:56:23;;;;;;;16.83;4.72;;;9.80;66.00;;;;;;5009630;28;82506;-71
2020/12/13 01:59:10;;;;;;;15.85;4.50;;;9.80;66.00;;;;;;4978872;28;80747;-70
2020/12/13 02:02:27;;;;;;;13.82;4.93;;;9.90;66.00;;;;;;4975986;28;83097;-70
2020/12/13 02:05:01;;;;;;;15.45;4.63;;;9.80;66.00;;;;;;4909823;28;81326;-71
2020/12/13 02:08:15;;;;;;;15.10;6.07;;;9.70;66.40;;;;;;4966759;28;81404;-71
2020/12/13 02:10:45;;;;;;;16.20;4.22;;;9.70;66.50;;;;;;4874022;28;80940;-70
2020/12/13 02:13:48;;;;;;;17.35;4.57;;;9.70;66.70;;;;;;4889385;28;80989;-70
2020/12/13 02:16:27;;;;;;;20.92;4.57;;;9.70;66.60;;;;;;4932767;28;80845;-71
2020/12/13 02:22:26;;;;;;;18.55;4.53;;;9.60;67.40;;;;;;4960918;28;80008;-71
2020/12/13 02:25:26;;;;;;;14.27;3.90;;;9.60;67.60;;;;;;4958373;28;79926;-69
2020/12/13 02:28:13;;;;;;;16.67;4.53;;;9.60;67.80;;;;;;4968225;28;80101;-70
2020/12/13 02:30:47;;;;;;;18.17;5.20;;;9.50;68.40;;;;;;4975895;28;79904;-70
2020/12/13 02:33:46;;;;;;;14.23;4.32;;;9.60;68.60;;;;;;5009756;28;80954;-69
2020/12/13 02:36:16;;;;;;;21.52;5.93;;;9.60;68.70;;;;;;5025164;28;80167;-69
2020/12/13 02:39:03;;;;;;;13.82;4.47;;;9.50;68.80;;;;;;5027948;28;81104;-68
2020/12/13 02:42:15;;;;;;;16.23;5.60;;;9.60;69.20;;;;;;5025475;28;80100;-70
2020/12/13 02:44:52;;;;;;;18.08;4.90;;;9.60;69.50;;;;;;5028334;28;79850;-68
2020/12/13 02:48:00;;;;;;;17.40;5.93;;;9.50;69.70;;;;;;5028042;28;80084;-70
2020/12/13 02:51:04;;;;;;;15.10;4.45;;;9.50;69.90;;;;;;5026824;28;80837;-68
2020/12/13 02:56:50;;;;;;;22.67;5.05;;;9.40;70.60;;;;;;5000462;28;81036;-69
2020/12/13 02:59:26;;;;;;;14.15;5.15;;;9.30;70.90;;;;;;5009438;28;79987;-69
2020/12/13 03:02:12;;;;;;;17.38;5.25;;;9.40;71.10;;;;;;5016360;28;80606;-70
2020/12/13 03:04:55;;;;;;;;;;;9.40;71.30;;;;;;5027766;28;81398;-69
2020/12/13 03:08:14;;;;;;;22.30;5.78;;;9.30;71.00;;;;;;4997661;28;75578;-70
2020/12/13 03:10:56;;;;;;;16.75;4.43;;;9.20;71.60;;;;;;5025877;28;80307;-70
2020/12/13 03:13:34;;;;;;;29.60;5.95;;;9.20;71.90;;;;;;5025324;28;81290;-68
2020/12/13 03:16:14;;;;;;;14.40;4.78;;;9.20;72.00;;;;;;5022899;28;80015;-70
2020/12/13 03:19:03;;;;;;;14.75;4.65;;;9.20;72.00;;;;;;5027572;28;81156;-70
2020/12/13 03:24:43;;;;;;;29.25;5.93;;;9.10;72.20;;;;;;5049235;27;81494;-69
2020/12/13 03:27:33;;;;;;;12.45;4.13;;;9.10;72.50;;;;;;5065608;27;80072;-68
2020/12/13 03:30:06;;;;;;;26.63;5.53;;;9.10;72.50;;;;;;5049662;27;81872;-69
2020/12/13 03:33:12;;;;;;;16.50;4.63;;;9.10;72.60;;;;;;5049605;27;83229;-68
2020/12/13 03:35:42;;;;;;;17.15;5.05;;;9.10;72.60;;;;;;5055027;27;80052;-69
2020/12/13 03:38:40;;;;;;;22.77;5.60;;;9.00;72.80;;;;;;5066585;27;80281;-69
2020/12/13 03:41:52;;;;;;;16.75;4.60;;;9.00;73.00;;;;;;5054238;27;80181;-70
2020/12/13 03:44:37;;;;;;;17.15;5.43;;;9.00;73.10;;;;;;4965155;28;80509;-69
2020/12/13 03:54:09;;;;;;;17.83;4.65;;;8.90;73.50;;;;;;4924308;28;80677;-69
2020/12/13 03:57:10;;;;;;;13.18;4.40;;;8.90;73.40;;;;;;4945906;28;81580;-70
2020/12/13 03:59:38;;;;;;;27.27;4.90;;;8.90;73.50;;;;;;4945588;28;80813;-71
2020/12/13 04:02:46;;;;;;;16.17;4.90;;;8.90;73.70;;;;;;4945625;28;80783;-71
2020/12/13 04:05:28;;;;;;;18.63;4.63;;;8.90;74.00;;;;;;4935061;28;81844;-71
2020/12/13 04:08:07;;;;;;;20.60;5.32;;;8.80;74.00;;;;;;4981800;28;80366;-70
2020/12/13 04:10:51;;;;;;;20.55;5.07;;;8.80;74.10;;;;;;5042400;28;80698;-71
2020/12/13 04:13:46;;;;;;;17.90;4.72;;;8.80;74.10;;;;;;5044095;28;81798;-69
2020/12/13 04:16:18;;;;;;;13.95;4.03;;;8.70;74.10;;;;;;5025507;28;82807;-69
2020/12/13 04:19:10;;;;;;;11.63;3.58;;;8.70;74.10;;;;;;5044390;28;80289;-69
2020/12/13 04:22:16;;;;;;;14.50;4.43;;;8.70;74.20;;;;;;5044061;28;81334;-69
2020/12/13 04:25:08;;;;;;;19.33;4.40;;;8.70;74.10;;;;;;4967538;28;80416;-70
2020/12/13 04:27:58;;;;;;;21.13;4.55;;;8.70;74.20;;;;;;4992125;28;81240;-68
2020/12/13 04:30:41;;;;;;;13.75;4.55;;;8.70;74.40;;;;;;5004664;28;81302;-69
2020/12/13 04:33:46;;;;;;;16.90;5.22;;;8.70;74.50;;;;;;4970669;28;81167;-68
2020/12/13 04:36:54;;;;;;;14.15;6.00;;;8.70;74.50;;;;;;4998719;28;80719;-69
2020/12/13 04:40:13;;;;;;;16.58;4.70;;;8.70;74.50;;;;;;5003257;28;79997;-68
2020/12/13 04:43:15;;;;;;;16.17;4.22;;;8.60;74.70;;;;;;4967521;28;80514;-70
2020/12/13 04:46:17;;;;;;;15.50;4.70;;;8.60;74.70;;;;;;4987530;28;80779;-70
2020/12/13 04:49:00;;;;;;;18.77;4.07;;;8.60;74.50;;;;;;4914396;28;80861;-70
2020/12/13 04:52:14;;;;;;;18.92;5.90;;;8.60;74.80;;;;;;4915613;28;79933;-70
2020/12/13 04:55:13;;;;;;;15.45;4.15;;;8.60;74.80;;;;;;4925293;28;81568;-70
2020/12/13 05:01:14;;;;;;;16.83;5.03;;;8.50;74.80;;;;;;4886484;28;80541;-70
2020/12/13 05:03:58;;;;;;;16.97;5.73;;;8.50;74.60;;;;;;4888918;28;81167;-69
2020/12/13 05:06:37;;;;;;;16.00;4.05;;;8.50;74.90;;;;;;4890006;28;81794;-69
2020/12/13 05:09:30;;;;;;;13.02;4.60;;;8.50;75.00;;;;;;4890750;28;81312;-68
2020/12/13 05:12:01;;;;;;;;;;;8.50;75.00;;;;;;4925007;28;80128;-69
2020/12/13 05:14:54;;;;;;;11.68;4.28;;;8.40;74.70;;;;;;4973266;28;76895;-69
2020/12/13 05:17:51;;;;;;;17.63;5.68;;;8.40;75.10;;;;;;4920259;28;80080;-69
2020/12/13 05:20:47;;;;;;;19.98;5.55;;;8.40;75.20;;;;;;4967239;28;81090;-69
2020/12/13 05:23:19;;;;;;;14.65;4.30;;;8.40;75.30;;;;;;4901209;28;82368;-68
2020/12/13 05:26:09;;;;;;;19.63;5.18;;;8.40;75.40;;;;;;4998218;28;80914;-70
2020/12/13 05:32:53;;;;;;;15.00;5.13;;;8.50;75.20;;;;;;4994598;28;80078;-68
2020/12/13 05:35:55;;;;;;;12.77;4.40;;;8.40;74.90;;;;;;4851816;28;81486;-70
2020/12/13 05:38:57;;;;;;;22.38;4.40;;;8.40;75.00;;;;;;4944008;28;81723;-69
2020/12/13 05:42:05;;;;;;;16.90;5.60;;;8.40;75.30;;;;;;5007559;28;80668;-69
2020/12/13 05:57:33;;;;;;;12.35;3.92;;;8.40;75.30;;;;;;5029099;28;80360;-70
2020/12/13 06:00:19;;;;;;;15.75;5.38;;;8.30;75.40;;;;;;5015224;28;80352;-69
2020/12/13 06:03:41;;;;;;;12.38;3.72;;;8.30;75.70;;;;;;5020878;28;81046;-69
2020/12/13 06:06:52;;;;;;;22.85;4.95;;;8.30;75.50;;;;;;4996822;28;80111;-69
2020/12/13 06:09:55;;;;;;;14.98;4.05;;;8.30;75.70;;;;;;5003779;28;80851;-69
2020/12/13 06:12:46;;;;;;;22.17;5.75;;;8.30;75.60;;;;;;5028930;28;80687;-68
2020/12/13 06:15:44;;;;;;;;;;;8.20;75.90;;;;;;5026396;28;80993;-69
2020/12/13 06:18:26;;;;;;;17.50;4.20;;;8.10;75.70;;;;;;5032087;28;80774;-69
2020/12/13 06:21:36;;;;;;;14.60;6.03;;;8.10;76.10;;;;;;5028025;28;79823;-70
2020/12/13 06:24:12;;;;;;;25.00;4.68;;;8.20;76.00;;;;;;5043614;27;82763;-70
2020/12/13 06:27:17;;;;;;;37.17;5.32;;;8.20;76.20;;;;;;5050658;27;80828;-70
2020/12/13 06:30:07;;;;;;;20.25;4.22;;;8.20;76.10;;;;;;5061490;27;80013;-70
2020/12/13 06:33:11;;;;;;;15.10;4.68;;;8.10;76.20;;;;;;5015544;27;81140;-70
2020/12/13 06:36:24;;;;;;;17.15;4.50;;;8.00;75.40;;;;;;5055779;27;81613;-70
2020/12/13 06:42:31;;;;;;;9.95;3.65;;;7.90;74.60;;;;;;4956039;28;80029;-71
2020/12/13 06:45:16;;;;;;;16.98;4.70;;;7.90;74.00;;;;;;4951072;28;81239;-71
2020/12/13 06:48:17;;;;;;;12.18;4.95;;;7.80;73.60;;;;;;4950114;28;80460;-72
2020/12/13 06:51:15;;;;;;;16.95;5.95;;;7.80;73.10;;;;;;4961164;28;80954;-71
2020/12/13 06:54:10;;;;;;;18.67;4.22;;;7.70;72.90;;;;;;4966284;28;80991;-71
2020/12/13 06:56:50;;;;;;;16.70;4.90;;;7.70;72.70;;;;;;4940565;28;80793;-70
2020/12/13 06:59:53;;;;;;;11.10;3.90;;;7.50;72.50;;;;;;4949773;28;80422;-70
2020/12/13 07:03:05;;;;;;;10.65;4.22;;;7.50;72.10;;;;;;4965957;28;81931;-70
2020/12/13 07:06:15;;;;;;;12.30;3.80;;;7.40;72.40;;;;;;5007292;27;80859;-70
2020/12/13 07:09:01;;;;;;;11.63;3.75;;;7.30;72.20;;;;;;5045275;28;82965;-69
2020/12/13 07:11:48;;;;;;;11.88;3.35;;;7.10;72.60;;;;;;5045287;28;81670;-69
2020/12/13 07:14:42;;;;;;;10.98;3.63;;;7.00;72.70;;;;;;5045257;28;79931;-71
2020/12/13 07:17:25;;;;;;;10.18;3.13;;;7.00;72.70;;;;;;5026720;28;81624;-71
2020/12/13 07:20:02;;;;;;;23.87;4.10;;;7.00;72.80;;;;;;5023701;28;80087;-71
2020/12/13 07:22:46;;;;;;;8.60;3.50;;;7.00;72.70;;;;;;5045174;28;80677;-71
2020/12/13 07:25:39;;;;;;;10.68;3.80;;;7.00;72.70;;;;;;5044489;27;80806;-71
2020/12/13 07:28:10;;;;;;;14.25;4.80;;;7.00;72.60;;;;;;5045558;28;81428;-70
2020/12/13 07:31:05;;;;;;;14.88;4.88;;;7.00;72.60;;;;;;5017626;28;81177;-71
2020/12/13 07:33:47;;;;;;;9.20;4.55;;;7.10;72.50;;;;;;5031867;28;79799;-71
2020/12/13 07:36:50;;;;;;;11.55;5.60;;;7.10;72.30;;;;;;5045441;28;81467;-75
2020/12/13 07:39:58;;;;;;;12.45;5.13;;;7.10;72.20;;;;;;5032389;27;82561;-72
2020/12/13 07:43:12;;;;;;;15.07;4.57;;;7.10;72.10;;;;;;4965628;28;81245;-68
2020/12/13 07:45:56;;;;;;;11.20;4.30;;;7.10;71.90;;;;;;4961220;28;80275;-65
2020/12/13 07:48:48;;;;;;;14.52;5.30;;;7.10;72.10;;;;;;4964934;28;80736;-67
2020/12/13 07:51:35;;;;;;;13.85;5.32;;;7.20;71.80;;;;;;4965573;28;80107;-66
2020/12/13 07:54:50;;;;;;;14.52;5.65;;;7.20;71.80;;;;;;4942529;28;83072;-70
2020/12/13 07:58:04;;;;;;;17.90;6.38;;;7.30;71.50;;;;;;4944230;28;80822;-70
2020/12/13 08:00:59;;;;;;;19.63;5.95;;;7.30;71.50;;;;;;5005681;27;80615;-69
2020/12/13 08:04:03;;;;;;;19.40;6.45;;;7.40;71.40;;;;;;5048845;27;81426;-67
2020/12/13 08:06:59;;;;;;;17.13;6.30;;;7.50;71.20;;;;;;5016582;27;81222;-67
2020/12/13 08:09:50;;;;;;;22.02;8.05;;;7.60;71.20;;;;;;5051644;27;80259;-67
2020/12/13 08:12:43;;;;;;;14.35;5.63;;;7.60;71.20;;;;;;4994018;27;80583;-68
2020/12/13 08:15:43;;;;;;;21.00;7.50;;;7.70;71.10;;;;;;5066907;27;80979;-70
2020/12/13 08:19:24;;;;;;;17.85;7.10;;;7.80;71.00;;;;;;5038709;27;80072;-73
2020/12/13 08:22:38;;;;;;;19.05;6.32;;;7.90;70.60;;;;;;4992738;28;81650;-67
2020/12/13 08:25:19;;;;;;;18.92;6.82;;;8.00;70.10;;;;;;4945511;28;81016;-69
2020/12/13 08:28:09;;;;;;;21.30;6.10;;;8.00;70.10;;;;;;4929054;28;80883;-74
2020/12/13 08:30:55;;;;;;;12.48;6.20;;;8.20;70.00;;;;;;4926532;28;81148;-70
2020/12/13 08:33:39;;;;;;;17.58;7.53;;;8.30;69.80;;;;;;4942556;28;80372;-68
2020/12/13 08:36:24;;;;;;;18.95;6.25;;;8.40;69.50;;;;;;4945526;28;79807;-69
2020/12/13 08:39:12;;;;;;;19.27;7.38;;;8.60;69.30;;;;;;4940243;28;81076;-67
2020/12/13 08:42:35;;;;;;;14.90;5.85;;;8.70;69.00;;;;;;4964417;28;81522;-73
2020/12/13 08:45:17;;;;;;;18.13;6.70;;;8.90;68.90;;;;;;4905903;28;80763;-69
2020/12/13 08:48:48;;;;;;;24.17;7.78;;;8.90;68.80;;;;;;4931207;28;80155;-70
2020/12/13 08:51:46;;;;;;;16.90;7.38;;;9.10;68.90;;;;;;4887009;28;80009;-64
2020/12/13 08:58:18;;;;;;;15.32;5.97;;;9.40;68.60;;;;;;4887289;28;80258;-62
2020/12/13 09:01:26;;;;;;;16.83;6.10;;;9.50;68.30;;;;;;4886571;28;82138;-66
2020/12/13 09:04:33;;;;;;;25.48;6.85;;;9.60;68.20;;;;;;4868970;28;80304;-69
2020/12/13 09:07:04;;;;;;;18.73;7.20;;;9.80;68.10;;;;;;4869689;28;80674;-61
2020/12/13 09:09:51;;;;;;;16.60;5.55;;;9.80;67.80;;;;;;4906076;28;80538;-64
2020/12/13 09:15:51;;;;;;;18.15;7.30;;;9.90;68.20;;;;;;4977622;28;80257;-66
2020/12/13 09:18:39;;;;;;;;;;;;;;;;;;;;;
2020/12/13 09:21:33;;;;;;;26.05;6.55;;;10.40;67.20;;;;;;4996635;28;109717;-66
2020/12/13 09:24:03;;;;;;;16.25;7.03;;;10.90;65.70;;;;;;4986849;28;80787;-59
2020/12/13 09:27:26;;;;;;;12.55;5.03;;;11.10;64.80;;;;;;5003561;28;80590;-61
2020/12/13 09:29:59;;;;;;;13.38;5.55;;;11.40;64.10;;;;;;4954585;28;81535;-64
2020/12/13 09:32:33;;;;;;;13.20;5.90;;;11.80;62.60;;;;;;4943392;28;80027;-62
2020/12/13 09:35:28;;;;;;;13.20;5.93;;;12.20;61.10;;;;;;4945376;28;80009;-61
2020/12/13 09:38:27;;;;;;;19.58;6.22;;;12.40;60.40;;;;;;4909461;28;80587;-62
2020/12/13 09:41:04;;;;;;;18.98;6.25;;;12.90;59.60;;;;;;4865276;29;80396;-64
2020/12/13 09:43:31;;;;;;;;;;;13.50;57.40;;;;;;4928253;28;80984;-66
2020/12/13 09:46:52;;;;;;;32.17;7.70;;;13.90;57.20;;;;;;4949385;28;75458;-64
2020/12/13 09:52:34;;;;;;;19.85;5.47;;;14.30;55.20;;;;;;4947430;28;79886;-62
2020/12/13 09:55:42;;;;;;;15.80;5.20;;;14.50;54.30;;;;;;4947659;28;79978;-62
2020/12/13 09:58:43;;;;;;;15.75;5.10;;;14.50;54.70;;;;;;4947258;28;83536;-63
2020/12/13 10:01:38;;;;;;;18.83;5.75;;;15.00;53.70;;;;;;4946650;28;82463;-66
2020/12/13 10:04:21;;;;;;;15.20;4.97;;;15.60;52.20;;;;;;4965999;28;81174;-64
2020/12/13 10:09:54;;;;;;;17.23;4.65;;;16.90;48.50;;;;;;4979918;28;80408;-62
2020/12/13 10:13:09;;;;;;;18.40;5.05;;;17.50;46.80;;;;;;4989613;28;81041;-61
2020/12/13 10:16:02;;;;;;;15.93;4.57;;;17.30;47.40;;;;;;5003070;28;80603;-63
2020/12/13 10:18:53;;;;;;;16.27;5.55;;;17.30;47.30;;;;;;4959184;28;80050;-65
2020/12/13 10:21:44;;;;;;;14.60;4.72;;;18.30;45.20;;;;;;5003765;28;83777;-66
2020/12/13 10:24:21;;;;;;;9.85;4.38;;;19.20;43.80;;;;;;5042342;28;80556;-62
2020/12/13 10:27:23;;;;;;;18.38;4.75;;;19.90;41.60;;;;;;5024352;28;83218;-64
2020/12/13 10:30:07;;;;;;;12.10;4.00;;;20.10;41.10;;;;;;4949950;28;80881;-60
2020/12/13 10:33:08;;;;;;;10.68;3.97;;;21.00;39.30;;;;;;5048854;27;80618;-62
2020/12/13 10:36:04;;;;;;;14.95;4.18;;;21.70;38.80;;;;;;4965119;28;80957;-62
2020/12/13 10:38:41;;;;;;;13.27;4.47;;;22.40;37.60;;;;;;4957256;28;80720;-61
2020/12/13 10:41:38;;;;;;;12.90;5.43;;;22.70;36.40;;;;;;4964528;28;80124;-61
2020/12/13 10:44:16;;;;;;;12.60;4.22;;;22.30;36.80;;;;;;4949949;28;81798;-62
2020/12/13 10:46:57;;;;;;;13.63;3.90;;;21.40;38.30;;;;;;4964939;28;80772;-65
2020/12/13 10:49:34;;;;;;;11.40;3.88;;;21.20;38.90;;;;;;4950147;28;84077;-62
2020/12/13 10:52:17;;;;;;;12.80;5.22;;;21.40;38.70;;;;;;4964986;27;81434;-64
2020/12/13 10:54:54;;;;;;;13.35;4.20;;;22.20;37.30;;;;;;5047813;28;80678;-61
2020/12/13 10:57:41;;;;;;;13.57;5.10;;;23.00;36.00;;;;;;5047873;27;80742;-64
2020/12/13 11:00:25;;;;;;;14.23;3.75;;;23.50;34.90;;;;;;5042973;27;80961;-64
2020/12/13 11:03:20;;;;;;;14.95;4.60;;;23.80;34.70;;;;;;5048193;28;80461;-67
2020/12/13 11:06:21;;;;;;;12.10;4.50;;;24.20;34.30;;;;;;5001920;28;80978;-65
2020/12/13 11:09:04;;;;;;;12.32;5.30;;;23.90;34.30;;;;;;4913417;28;79933;-62
2020/12/13 11:11:48;;;;;;;12.60;4.20;;;23.30;35.20;;;;;;5005594;28;80292;-63
2020/12/13 11:14:52;;;;;;;22.85;6.18;;;23.50;35.00;;;;;;4988714;28;82382;-62
2020/12/13 11:17:39;;;;;;;16.52;4.20;;;23.10;35.40;;;;;;4982407;28;80261;-62
2020/12/13 11:20:52;;;;;;;11.65;4.95;;;22.90;36.20;;;;;;5006061;28;80195;-66
2020/12/13 11:23:46;;;;;;;14.15;4.72;;;23.70;35.30;;;;;;4906984;28;82018;-64
2020/12/13 11:26:36;;;;;;;13.50;4.47;;;24.40;34.50;;;;;;4891208;28;79994;-64
2020/12/13 11:29:14;;;;;;;10.93;4.25;;;24.90;33.60;;;;;;4902336;28;80683;-63
2020/12/13 11:32:01;;;;;;;12.50;4.47;;;25.70;32.00;;;;;;4907163;28;80646;-63
2020/12/13 11:34:31;;;;;;;10.77;4.88;;;26.50;31.00;;;;;;4891652;28;81156;-63
2020/12/13 11:37:20;;;;;;;11.77;4.22;;;26.40;30.90;;;;;;4907747;28;80950;-64
2020/12/13 11:40:18;;;;;;;16.13;4.70;;;26.40;31.00;;;;;;4911184;28;80808;-65
2020/12/13 11:42:51;;;;;;;19.17;5.07;;;26.30;31.50;;;;;;4997211;28;80878;-65
2020/12/13 11:48:35;;;;;;;13.88;4.68;;;27.40;29.70;;;;;;4964999;28;80136;-64
2020/12/13 11:51:10;;;;;;;9.57;4.30;;;27.30;30.40;;;;;;4961577;28;81148;-64
2020/12/13 11:53:48;;;;;;;11.35;4.97;;;28.30;28.90;;;;;;4965454;28;81114;-62
2020/12/13 11:56:37;;;;;;;11.82;4.82;;;28.90;28.00;;;;;;4947708;28;83271;-63
2020/12/13 11:59:31;;;;;;;17.00;4.93;;;29.30;27.80;;;;;;4920207;28;80108;-62
2020/12/13 12:05:27;;;;;;;11.30;4.47;;;28.90;28.10;;;;;;4895419;28;80598;-63
2020/12/13 12:08:09;;;;;;;13.55;4.90;;;28.60;28.40;;;;;;5024175;28;80656;-66
2020/12/13 12:11:02;;;;;;;13.10;4.93;;;28.90;28.20;;;;;;5015696;28;79839;-65
2020/12/13 12:13:39;;;;;;;10.43;4.22;;;29.80;27.60;;;;;;5024070;28;81226;-63
2020/12/13 12:16:37;;;;;;;14.85;4.65;;;30.50;26.90;;;;;;4990481;28;80622;-64
2020/12/13 12:19:44;;;;;;;12.68;4.85;;;30.70;26.80;;;;;;5008052;28;81579;-64
2020/12/13 12:22:45;;;;;;;10.93;4.25;;;31.10;26.40;;;;;;4990179;28;80736;-64
2020/12/13 12:25:46;;;;;;;11.30;4.63;;;30.80;26.40;;;;;;4945070;28;80207;-63
2020/12/13 12:28:36;;;;;;;;;;;;;;;;;;;;;
2020/12/13 12:31:16;;;;;;;13.02;4.30;;;29.40;27.90;;;;;;4999573;28;109639;-64
2020/12/13 12:33:55;;;;;;;9.10;3.75;;;29.40;28.10;;;;;;5023751;28;82576;-62
2020/12/13 12:36:40;;;;;;;13.82;4.45;;;29.40;28.20;;;;;;5046804;28;80613;-63
2020/12/13 12:39:36;;;;;;;12.05;4.07;;;29.70;27.90;;;;;;5046481;28;80807;-65
2020/12/13 12:42:12;;;;;;;15.52;4.57;;;29.40;27.60;;;;;;5045918;28;80499;-63
2020/12/13 12:45:03;;;;;;;14.45;4.38;;;28.00;29.20;;;;;;5004888;28;81318;-63
2020/12/13 12:47:35;;;;;;;12.63;4.78;;;26.20;31.30;;;;;;5044926;28;80624;-64
2020/12/13 12:50:11;;;;;;;10.35;4.95;;;25.40;32.80;;;;;;5027694;28;81472;-65
2020/12/13 12:52:53;;;;;;;17.17;6.65;;;24.50;34.20;;;;;;4993803;28;80910;-66
2020/12/13 12:55:58;;;;;;;11.57;3.72;;;23.90;35.30;;;;;;5028451;28;82493;-65
2020/12/13 12:59:27;;;;;;;10.35;4.78;;;23.20;36.30;;;;;;4944763;28;80236;-65
2020/12/13 13:04:32;;;;;;;13.40;5.05;;;21.90;39.30;;;;;;4943744;28;80135;-63
2020/12/13 13:07:34;;;;;;;15.85;6.25;;;21.10;40.90;;;;;;5002881;28;80901;-64
2020/12/13 13:10:28;;;;;;;15.27;5.90;;;21.00;41.50;;;;;;5038692;28;81179;-64
2020/12/13 13:13:34;;;;;;;13.07;5.80;;;21.10;41.60;;;;;;4993749;28;80414;-65
2020/12/13 13:16:42;;;;;;;10.77;4.38;;;21.10;41.40;;;;;;5028244;28;82836;-63
2020/12/13 13:19:57;;;;;;;12.63;5.00;;;20.90;42.00;;;;;;4928225;28;80943;-64
2020/12/13 13:23:02;;;;;;;17.80;5.75;;;20.50;43.10;;;;;;4933974;28;81206;-65
2020/12/13 13:26:06;;;;;;;11.10;4.68;;;21.50;41.30;;;;;;5026827;28;79907;-64
2020/12/13 13:29:01;;;;;;;14.88;5.53;;;21.40;41.20;;;;;;5023217;28;80639;-64
2020/12/13 13:34:48;;;;;;;16.17;5.05;;;19.50;44.80;;;;;;5023815;28;81109;-66
2020/12/13 13:40:34;;;;;;;11.77;4.70;;;19.10;46.50;;;;;;5029360;28;79922;-66
2020/12/13 13:43:20;;;;;;;8.80;3.92;;;18.90;46.60;;;;;;5019548;28;79839;-66
2020/12/13 13:52:21;;;;;;;12.02;4.00;;;17.50;50.00;;;;;;4946614;28;80008;-65
2020/12/13 13:58:24;;;;;;;8.82;4.57;;;17.90;49.70;;;;;;5009903;28;80509;-64
2020/12/13 14:01:24;;;;;;;7.90;4.30;;;18.10;49.20;;;;;;5000792;28;82885;-63
2020/12/13 14:09:50;;;;;;;9.68;3.60;;;17.80;50.10;;;;;;5029470;28;80390;-64
2020/12/13 14:12:37;;;;;;;10.00;4.38;;;17.40;51.10;;;;;;5010701;28;82460;-64
2020/12/13 14:15:53;;;;;;;9.25;4.40;;;17.00;51.70;;;;;;4994295;28;81174;-63
2020/12/13 14:18:32;;;;;;;10.73;4.32;;;16.90;52.30;;;;;;5026057;28;80007;-63
2020/12/13 14:21:34;;;;;;;16.52;4.68;;;16.70;53.00;;;;;;5025807;28;80840;-63
2020/12/13 14:24:10;;;;;;;12.50;4.53;;;16.40;53.70;;;;;;4997492;28;82354;-64
2020/12/13 14:26:52;;;;;;;9.77;3.83;;;16.00;54.60;;;;;;5047937;28;80269;-64
2020/12/13 14:29:29;;;;;;;7.95;3.65;;;15.80;55.50;;;;;;5049177;28;79790;-63
2020/12/13 14:32:34;;;;;;;39.53;17.50;;;15.70;56.20;;;;;;5014480;28;81000;-63
2020/12/13 14:35:09;;;;;;;13.10;3.90;;;15.40;57.00;;;;;;5029095;27;82635;-63
2020/12/13 14:38:06;;;;;;;9.57;3.97;;;15.30;57.20;;;;;;5028450;28;79943;-63
2020/12/13 14:41:07;;;;;;;16.67;7.93;;;15.30;57.30;;;;;;5048873;28;80280;-64
2020/12/13 14:44:00;;;;;;;15.50;7.43;;;15.30;57.40;;;;;;5013585;28;81239;-64
2020/12/13 14:46:45;;;;;;;8.18;3.15;;;15.10;57.80;;;;;;5046927;28;80815;-64
2020/12/13 14:49:52;;;;;;;11.60;3.75;;;15.10;58.20;;;;;;5029810;28;83157;-63
2020/12/13 14:52:40;;;;;;;10.07;3.85;;;14.90;58.90;;;;;;5029738;28;80904;-64
2020/12/13 14:55:34;;;;;;;10.10;4.45;;;14.70;59.10;;;;;;5043973;28;80872;-65
2020/12/13 14:58:22;;;;;;;11.63;4.10;;;14.80;59.20;;;;;;4985363;28;80622;-63
2020/12/13 15:01:07;;;;;;;11.75;3.53;;;14.90;59.00;;;;;;4985790;28;80578;-65
2020/12/13 15:03:47;;;;;;;12.30;4.50;;;14.90;59.00;;;;;;4956382;28;80461;-64
2020/12/13 15:06:42;;;;;;;7.95;4.03;;;14.90;59.00;;;;;;5018858;28;81371;-63
2020/12/13 15:09:49;;;;;;;6.82;2.90;;;14.90;59.10;;;;;;5048537;28;80326;-64
2020/12/13 15:12:31;;;;;;;7.40;4.07;;;14.80;59.50;;;;;;5047709;28;80991;-64
2020/12/13 15:18:27;;;;;;;7.07;3.05;;;14.60;59.80;;;;;;5044889;28;80469;-63
2020/12/13 15:21:08;;;;;;;7.57;2.70;;;14.40;60.10;;;;;;4964766;28;80049;-63
2020/12/13 15:24:24;;;;;;;8.82;4.05;;;14.30;60.80;;;;;;5047825;28;80765;-65
2020/12/13 15:27:01;;;;;;;7.88;3.58;;;14.30;61.00;;;;;;5042381;28;80629;-66
2020/12/13 15:29:52;;;;;;;9.13;3.95;;;14.30;61.20;;;;;;5028802;28;82383;-63
2020/12/13 15:32:57;;;;;;;10.27;4.13;;;14.40;60.60;;;;;;5001987;28;80322;-65
2020/12/13 15:35:54;;;;;;;10.30;4.78;;;14.40;60.80;;;;;;5046846;28;80724;-63
2020/12/13 15:38:34;;;;;;;11.27;4.93;;;14.50;60.50;;;;;;4952534;28;83506;-65
2020/12/13 15:41:04;;;;;;;8.90;4.22;;;14.50;60.40;;;;;;4988266;28;80639;-64
2020/12/13 15:43:37;;;;;;;8.77;4.13;;;14.60;60.20;;;;;;5047817;28;80631;-66
2020/12/13 15:46:20;;;;;;;9.35;3.67;;;14.50;60.40;;;;;;5026432;28;81413;-65
2020/12/13 15:48:50;;;;;;;10.68;3.88;;;14.60;60.40;;;;;;5047691;28;80507;-63
2020/12/13 15:51:24;;;;;;;9.52;4.13;;;14.50;60.70;;;;;;5028915;28;80628;-67
2020/12/13 15:53:57;;;;;;;7.18;3.20;;;14.40;60.70;;;;;;5041174;28;80282;-66
2020/12/13 15:56:48;;;;;;;8.33;3.37;;;14.30;61.20;;;;;;5028607;28;82692;-66
2020/12/13 15:59:38;;;;;;;9.77;3.63;;;14.20;61.10;;;;;;5010351;28;82598;-64
2020/12/13 16:02:43;;;;;;;10.45;4.43;;;14.00;61.90;;;;;;5026863;28;80881;-65
2020/12/13 16:08:24;;;;;;;8.15;3.65;;;13.70;62.70;;;;;;5026937;28;80376;-66
2020/12/13 16:10:57;;;;;;;10.57;3.45;;;13.60;63.20;;;;;;5009261;28;80006;-67
2020/12/13 16:13:40;;;;;;;10.23;4.13;;;13.50;63.40;;;;;;5008355;28;81105;-63
2020/12/13 16:16:39;;;;;;;11.25;3.88;;;13.50;63.60;;;;;;4991446;28;80327;-66
2020/12/13 16:19:16;;;;;;;8.85;4.22;;;13.50;63.80;;;;;;5019150;28;80755;-64
2020/12/13 16:24:42;;;;;;;10.10;3.38;;;13.50;64.00;;;;;;4974747;28;80612;-68
2020/12/13 16:27:55;;;;;;;9.55;3.90;;;13.40;64.60;;;;;;4971742;28;81428;-69
2020/12/13 16:30:34;;;;;;;11.73;4.32;;;13.30;64.60;;;;;;4948334;28;80714;-68